»·PEaware :: FJS1399 KEGE-KTEX

FJS1399 :: KEGE-KTEX

FLIGHT INFORMATION

Flight Status: Arrived
Operator: Unknown
More flights by this operator :: More flights under this callsign
Pilot: David C. (16084)
Aircraft: ECLIPSE 500
(EA50)
More flights by this aircraft type
Origin: KEGE Eagle Co Regl
United States
Destination: KTEX Telluride Regl
United States
More flights between these airports :: More routes between these airports
Route: EKR3 EKR ETL
File this flight plan on PilotEdge
Remarks:
Altitude:
(Current/Filed)
22,000ft
Speed:
(Current/Filed)
357kts
Departed: 26-Jul-18 09:10 AM
Arrived: 26-Jul-18 09:43 AM
Distance/Time
Traveled:
111nm/0:33
Distance/Time
To Go:
Arrived

Flight Plot

Page will automatically refresh every two minutes.

Flight plan parsing failed; only flown route is shown


Map Options




Map Legend


Flown Route
Filed Route
Departure Airport
Arrival Airport
Navaid (VOR, NDB)
Fix

Horizontal Profiles

Position Reports

Time Latitude Longitude Heading Altitude Ground
Speed
26-Jul-18 08:44 39.641197 -106.910032 262 6548ft 0kts
26-Jul-18 08:45 39.641197 -106.910032 262 6548ft 0kts
26-Jul-18 08:46 39.641197 -106.910032 262 6548ft 0kts
26-Jul-18 08:47 39.641197 -106.910032 262 6548ft 0kts
26-Jul-18 08:48 39.641197 -106.910032 262 6548ft 0kts
26-Jul-18 08:49 39.641197 -106.910032 262 6548ft 0kts
26-Jul-18 08:50 39.641197 -106.910032 262 6548ft 0kts
26-Jul-18 08:51 39.641197 -106.910032 262 6548ft 0kts
26-Jul-18 08:52 39.641197 -106.910032 262 6548ft 0kts
26-Jul-18 08:53 39.641197 -106.910032 262 6548ft 0kts
26-Jul-18 08:54 39.641197 -106.910032 262 6548ft 0kts
26-Jul-18 08:55 39.641197 -106.910032 262 6548ft 0kts
26-Jul-18 08:56 39.641197 -106.910032 262 6548ft 0kts
26-Jul-18 08:57 39.641197 -106.910032 262 6548ft 0kts
26-Jul-18 08:58 39.641197 -106.910032 262 6548ft 0kts
26-Jul-18 08:59 39.641197 -106.910032 262 6548ft 0kts
26-Jul-18 09:00 39.641197 -106.910032 262 6548ft 0kts
26-Jul-18 09:01 39.641197 -106.910032 262 6548ft 0kts
26-Jul-18 09:02 39.641197 -106.910032 262 6548ft 0kts
26-Jul-18 09:03 39.641197 -106.910032 262 6548ft 0kts
26-Jul-18 09:04 39.641197 -106.910032 262 6548ft 0kts
26-Jul-18 09:05 39.641197 -106.910032 262 6548ft 0kts
26-Jul-18 09:06 39.641197 -106.910032 262 6548ft 0kts
26-Jul-18 09:07 39.642565 -106.908774 81 6548ft 25kts
26-Jul-18 09:08 39.643382 -106.901934 36 6548ft 0kts
26-Jul-18 09:09 39.643382 -106.901934 36 6548ft 0kts
26-Jul-18 09:10 39.644405 -106.902116 263 6548ft 0kts
26-Jul-18 09:11 39.642073 -106.923483 263 6650ft 136kts
26-Jul-18 09:12 39.616035 -106.967429 227 8596ft 176kts
26-Jul-18 09:13 39.611443 -107.016232 321 10763ft 179kts
26-Jul-18 09:14 39.658121 -107.039660 333 12828ft 194kts
26-Jul-18 09:15 39.706187 -107.067738 331 14973ft 198kts
26-Jul-18 09:16 39.755347 -107.097269 328 16970ft 201kts
26-Jul-18 09:17 39.745354 -107.158084 238 18779ft 215kts
26-Jul-18 09:18 39.700993 -107.209030 209 20485ft 233kts
26-Jul-18 09:19 39.643041 -107.242558 212 22040ft 236kts
26-Jul-18 09:20 39.580555 -107.281678 212 22449ft 284kts
26-Jul-18 09:21 39.506405 -107.329134 211 22429ft 327kts
26-Jul-18 09:22 39.422870 -107.382956 211 22413ft 354kts
26-Jul-18 09:23 39.334506 -107.439937 211 22390ft 369kts
26-Jul-18 09:24 39.242555 -107.499128 211 22358ft 377kts
26-Jul-18 09:25 39.149052 -107.559151 211 22340ft 375kts
26-Jul-18 09:26 39.056965 -107.618124 211 22334ft 379kts
26-Jul-18 09:27 38.964342 -107.677369 209 22333ft 388kts
26-Jul-18 09:28 38.885484 -107.727706 207 20753ft 391kts
26-Jul-18 09:29 38.843459 -107.754375 206 19736ft 386kts
26-Jul-18 09:30 38.750570 -107.813171 206 17484ft 373kts
26-Jul-18 09:31 38.660423 -107.870124 205 15781ft 355kts
26-Jul-18 09:32 38.571418 -107.926180 205 15798ft 360kts
26-Jul-18 09:33 38.486536 -107.925126 157 16269ft 315kts
26-Jul-18 09:34 38.405409 -107.886532 157 16269ft 320kts
26-Jul-18 09:35 38.324259 -107.847893 157 16270ft 325kts
26-Jul-18 09:36 38.236214 -107.814633 172 16267ft 360kts
26-Jul-18 09:37 38.142612 -107.802237 175 16673ft 361kts
26-Jul-18 09:38 38.047807 -107.803813 182 16660ft 363kts
26-Jul-18 09:39 37.968298 -107.811080 188 14386ft 313kts
26-Jul-18 09:40 37.932812 -107.873279 268 11280ft 277kts
26-Jul-18 09:41 37.939186 -107.948392 284 10716ft 210kts
26-Jul-18 09:42 37.962665 -107.951790 99 9819ft 142kts
26-Jul-18 09:43 37.955559 -107.917182 101 9087ft 110kts
26-Jul-18 09:44 37.953008 -107.901232 15 9081ft 6kts
26-Jul-18 09:45 37.954382 -107.902426 14 9081ft 0kts
26-Jul-18 09:46 37.954382 -107.902426 14 9081ft 0kts

Navigation Log

Ident Type
Flight plan parsing failed, navigation log unavailable